createdAt,value
2019-02-16T00:01:10.129Z,3.00
2019-02-16T00:03:39.312Z,2.80
2019-02-16T00:06:08.440Z,2.90
2019-02-16T00:08:37.583Z,3.10
2019-02-16T00:11:06.819Z,3.00
2019-02-16T00:13:36.149Z,3.10
2019-02-16T00:16:05.319Z,3.10
2019-02-16T00:18:36.733Z,3.00
2019-02-16T00:21:05.901Z,2.90
2019-02-16T00:23:35.140Z,2.80
2019-02-16T00:26:04.316Z,2.80
2019-02-16T00:28:33.650Z,2.70
2019-02-16T00:31:02.819Z,2.60
2019-02-16T00:33:31.968Z,2.70
2019-02-16T00:36:01.123Z,2.60
2019-02-16T00:38:30.251Z,2.50
2019-02-16T00:40:59.487Z,2.50
2019-02-16T00:43:28.866Z,2.70
2019-02-16T00:45:58.040Z,2.70
2019-02-16T00:48:27.183Z,2.60
2019-02-16T00:50:56.337Z,2.70
2019-02-16T00:53:25.488Z,2.70
2019-02-16T00:55:54.699Z,2.40
2019-02-16T00:58:23.845Z,2.40
2019-02-16T01:01:04.405Z,2.50
2019-02-16T01:03:33.589Z,2.50
2019-02-16T01:06:02.740Z,2.30
2019-02-16T01:08:31.976Z,2.40
2019-02-16T01:11:01.245Z,2.40
2019-02-16T01:13:30.537Z,2.30
2019-02-16T01:18:48.038Z,2.40
2019-02-16T01:21:22.811Z,2.20
2019-02-16T01:23:48.169Z,2.20
2019-02-16T01:26:17.313Z,2.00
2019-02-16T01:28:46.552Z,2.10
2019-02-16T01:31:15.751Z,2.10
2019-02-16T01:33:45.578Z,2.20
2019-02-16T01:36:14.919Z,2.10
2019-02-16T01:38:44.147Z,1.90
2019-02-16T01:41:13.276Z,1.70
2019-02-16T01:43:42.538Z,1.90
2019-02-16T01:46:11.692Z,2.00
2019-02-16T01:48:40.841Z,1.90
2019-02-16T01:51:10.002Z,2.00
2019-02-16T01:53:39.173Z,2.00
2019-02-16T01:56:08.330Z,2.00
2019-02-16T01:58:37.563Z,2.00
2019-02-16T02:01:06.693Z,1.90
2019-02-16T02:03:35.967Z,2.10
2019-02-16T02:06:05.151Z,2.10
2019-02-16T02:08:34.289Z,1.70
2019-02-16T02:11:04.383Z,1.70
2019-02-16T02:13:33.550Z,1.50
2019-02-16T02:16:02.769Z,1.40
2019-02-16T02:18:31.904Z,1.60
2019-02-16T02:21:01.184Z,1.60
2019-02-16T02:23:30.316Z,1.70
2019-02-16T02:25:59.460Z,1.90
2019-02-16T02:28:28.597Z,1.80
2019-02-16T02:30:57.753Z,1.90
2019-02-16T02:33:26.952Z,1.70
2019-02-16T02:35:56.096Z,1.60
2019-02-16T02:38:25.253Z,1.30
2019-02-16T02:40:54.408Z,1.30
2019-02-16T02:43:23.552Z,1.40
2019-02-16T02:45:52.746Z,1.60
2019-02-16T02:48:21.894Z,1.50
2019-02-16T02:50:51.046Z,1.50
2019-02-16T02:53:30.262Z,1.50
2019-02-16T02:55:51.038Z,1.40
2019-02-16T02:58:20.260Z,1.40
2019-02-16T03:00:49.405Z,1.30
2019-02-16T03:03:18.555Z,1.40
2019-02-16T03:05:47.787Z,1.40
2019-02-16T03:08:17.283Z,1.30
2019-02-16T03:10:46.511Z,1.30
2019-02-16T03:13:15.653Z,1.20
2019-02-16T03:15:44.844Z,1.30
2019-02-16T03:18:13.992Z,1.20
2019-02-16T03:20:43.120Z,1.30
2019-02-16T03:23:13.915Z,1.30
2019-02-16T03:25:49.467Z,1.10
2019-02-16T03:28:43.329Z,1.20
2019-02-16T03:31:50.952Z,1.20
2019-02-16T03:34:33.924Z,1.30
2019-02-16T03:37:22.004Z,1.20
2019-02-16T03:39:51.153Z,1.10
2019-02-16T03:42:20.308Z,1.10
2019-02-16T03:44:49.440Z,1.10
2019-02-16T03:47:18.635Z,1.20
2019-02-16T03:49:47.777Z,1.10
2019-02-16T03:52:16.948Z,1.10
2019-02-16T03:54:46.097Z,1.10
2019-02-16T03:57:15.217Z,1.00
2019-02-16T03:59:44.382Z,1.20
2019-02-16T04:02:13.548Z,1.10
2019-02-16T04:04:42.704Z,1.10
2019-02-16T04:07:11.833Z,1.30
2019-02-16T04:09:41.003Z,1.20
2019-02-16T04:12:10.133Z,1.20
2019-02-16T04:14:39.332Z,1.30
2019-02-16T04:17:08.485Z,1.30
2019-02-16T04:19:37.716Z,1.30
2019-02-16T04:22:06.883Z,1.10
2019-02-16T04:24:36.034Z,0.90
2019-02-16T04:27:05.170Z,1.00
2019-02-16T04:29:34.341Z,1.00
2019-02-16T04:32:03.472Z,0.80
2019-02-16T04:34:32.627Z,1.10
2019-02-16T04:37:01.750Z,1.00
2019-02-16T04:39:30.900Z,0.80
2019-02-16T04:42:00.093Z,0.60
2019-02-16T04:44:29.238Z,0.70
2019-02-16T04:46:58.369Z,0.70
2019-02-16T04:49:27.517Z,0.80
2019-02-16T04:51:56.679Z,0.70
2019-02-16T04:54:25.849Z,0.70
2019-02-16T04:56:54.992Z,0.90
2019-02-16T04:59:24.140Z,0.80
2019-02-16T05:01:53.374Z,0.70
2019-02-16T05:04:22.504Z,0.60
2019-02-16T05:06:51.657Z,0.60
2019-02-16T05:09:20.873Z,0.50
2019-02-16T05:11:50.119Z,0.50
2019-02-16T05:14:19.358Z,0.60
2019-02-16T05:16:48.537Z,0.50
2019-02-16T05:19:17.678Z,0.30
2019-02-16T05:21:47.079Z,0.30
2019-02-16T05:24:16.497Z,0.40
2019-02-16T05:26:45.648Z,0.50
2019-02-16T05:29:14.829Z,0.30
2019-02-16T05:31:43.979Z,0.20
2019-02-16T05:34:32.215Z,0.20
2019-02-16T05:37:01.420Z,0.30
2019-02-16T05:39:30.539Z,0.30
2019-02-16T05:41:59.696Z,0.20
2019-02-16T05:44:30.818Z,0.10
2019-02-16T05:47:00.091Z,0.30
2019-02-16T05:49:29.225Z,0.30
2019-02-16T05:51:58.387Z,0.30
2019-02-16T05:54:27.529Z,0.30
2019-02-16T05:56:56.686Z,0.20
2019-02-16T05:59:25.891Z,0.10
2019-02-16T06:01:55.197Z,0.30
2019-02-16T06:04:24.428Z,0.20
2019-02-16T06:06:53.604Z,0.30
2019-02-16T06:09:22.814Z,0.10
2019-02-16T06:11:51.977Z,0.10
2019-02-16T06:14:21.225Z,0.10
2019-02-16T06:16:50.400Z,0.00
2019-02-16T06:19:19.542Z,0.00
2019-02-16T06:21:48.700Z,-0.20
2019-02-16T06:24:17.843Z,-0.20
2019-02-16T06:26:47.127Z,0.10
2019-02-16T06:29:16.433Z,0.00
2019-02-16T06:31:45.578Z,-0.10
2019-02-16T06:34:14.769Z,-0.20
2019-02-16T06:36:44.068Z,0.00
2019-02-16T06:39:13.637Z,-0.10
2019-02-16T06:41:42.803Z,0.00
2019-02-16T06:44:11.974Z,0.00
2019-02-16T06:46:41.429Z,0.10
2019-02-16T06:49:10.960Z,0.10
2019-02-16T06:51:40.087Z,0.30
2019-02-16T06:54:09.267Z,0.20
2019-02-16T06:56:43.818Z,0.20
2019-02-16T06:59:12.984Z,0.10
2019-02-16T07:01:42.189Z,0.20
2019-02-16T07:04:11.391Z,0.40
2019-02-16T07:06:40.623Z,0.30
2019-02-16T07:09:09.910Z,0.20
2019-02-16T07:11:39.073Z,0.20
2019-02-16T07:14:08.401Z,0.20
2019-02-16T07:16:47.209Z,0.10
2019-02-16T07:19:20.394Z,0.20
2019-02-16T07:21:49.561Z,0.20
2019-02-16T07:24:18.733Z,0.30
2019-02-16T07:26:48.016Z,0.40
2019-02-16T07:29:17.225Z,0.50
2019-02-16T07:31:46.429Z,0.40
2019-02-16T07:34:15.723Z,0.70
2019-02-16T07:36:44.992Z,1.10
2019-02-16T07:39:14.370Z,1.40
2019-02-16T07:41:43.667Z,1.70
2019-02-16T07:44:31.852Z,1.60
2019-02-16T07:47:38.402Z,1.80
2019-02-16T07:50:35.541Z,2.10
2019-02-16T07:53:31.341Z,2.50
2019-02-16T07:56:20.983Z,2.90
2019-02-16T07:59:14.612Z,3.20
2019-02-16T08:01:52.648Z,3.40
2019-02-16T08:04:44.049Z,3.90
2019-02-16T08:07:24.005Z,4.10
2019-02-16T08:10:11.411Z,4.20
2019-02-16T08:13:01.400Z,4.60
2019-02-16T08:15:47.491Z,4.80
2019-02-16T08:18:33.640Z,5.50
2019-02-16T08:21:19.080Z,5.80
2019-02-16T08:24:10.174Z,7.50
2019-02-16T08:26:55.269Z,8.80
2019-02-16T08:29:34.772Z,11.30
2019-02-16T08:32:18.601Z,12.30
2019-02-16T08:35:05.304Z,13.10
2019-02-16T08:37:48.271Z,14.90
2019-02-16T08:40:30.452Z,15.60
2019-02-16T08:43:27.547Z,15.80
2019-02-16T08:46:21.974Z,14.50
2019-02-16T08:49:13.144Z,13.30
2019-02-16T08:51:51.245Z,12.30
2019-02-16T08:54:37.623Z,10.50
2019-02-16T08:57:19.622Z,10.00
2019-02-16T09:00:06.748Z,9.40
2019-02-16T09:02:53.888Z,10.00
2019-02-16T09:05:42.100Z,9.70
2019-02-16T09:08:22.532Z,9.60
2019-02-16T09:11:09.612Z,10.00
2019-02-16T09:14:03.743Z,9.60
2019-02-16T09:16:48.740Z,9.30
2019-02-16T09:19:36.950Z,9.50
2019-02-16T09:22:13.480Z,10.10
2019-02-16T09:25:02.142Z,10.50
2019-02-16T09:27:42.887Z,12.30
2019-02-16T09:30:26.828Z,15.30
2019-02-16T09:33:26.918Z,17.50
2019-02-16T09:36:02.192Z,19.40
2019-02-16T09:38:40.581Z,21.20
2019-02-16T09:41:23.368Z,21.40
2019-02-16T09:44:10.397Z,22.40
2019-02-16T09:47:04.817Z,20.90
2019-02-16T09:49:45.583Z,20.90
2019-02-16T09:52:36.759Z,21.40
2019-02-16T09:55:28.221Z,22.20
2019-02-16T09:58:11.104Z,22.50
2019-02-16T10:00:58.311Z,21.80
2019-02-16T10:03:52.560Z,20.50
2019-02-16T10:06:35.404Z,20.20
2019-02-16T10:09:18.697Z,19.40
2019-02-16T10:11:59.464Z,20.00
2019-02-16T10:15:10.467Z,18.30
2019-02-16T10:17:58.665Z,18.30
2019-02-16T10:20:53.268Z,19.20
2019-02-16T10:23:37.429Z,18.80
2019-02-16T10:26:28.216Z,20.00
2019-02-16T10:29:34.603Z,20.60
2019-02-16T10:32:22.814Z,20.90
2019-02-16T10:34:59.171Z,22.20
2019-02-16T10:37:59.333Z,22.10
2019-02-16T10:40:46.071Z,22.40
2019-02-16T10:43:32.965Z,21.80
2019-02-16T10:46:32.069Z,20.50
2019-02-16T10:49:35.386Z,23.40
2019-02-16T10:52:26.606Z,26.10
2019-02-16T10:55:08.637Z,28.00
2019-02-16T10:57:55.977Z,29.20
2019-02-16T11:00:52.974Z,29.90
2019-02-16T11:03:50.168Z,29.40
2019-02-16T11:06:34.016Z,29.80
2019-02-16T11:09:25.545Z,29.20
2019-02-16T11:12:16.443Z,31.30
2019-02-16T11:14:56.415Z,32.00
2019-02-16T11:17:38.501Z,32.50
2019-02-16T11:20:27.075Z,32.00
2019-02-16T11:23:21.519Z,32.80
2019-02-16T11:26:15.971Z,33.10
2019-02-16T11:29:11.244Z,34.00
2019-02-16T11:32:02.609Z,34.50
2019-02-16T11:34:50.934Z,33.90
2019-02-16T11:37:29.724Z,35.60
2019-02-16T11:40:24.044Z,36.40
2019-02-16T11:43:05.480Z,33.90
2019-02-16T11:45:44.746Z,35.70
2019-02-16T11:48:35.789Z,35.70
2019-02-16T11:51:23.022Z,36.00
2019-02-16T11:54:13.984Z,36.90
2019-02-16T11:56:53.417Z,38.20
2019-02-16T11:59:44.357Z,37.90
2019-02-16T12:02:44.873Z,38.80
2019-02-16T12:05:28.514Z,38.10
2019-02-16T12:08:10.683Z,37.80
2019-02-16T12:11:03.912Z,36.40
2019-02-16T12:13:52.033Z,38.30
2019-02-16T12:16:58.681Z,38.90
2019-02-16T12:19:33.597Z,37.00
2019-02-16T12:22:23.505Z,37.70
2019-02-16T12:25:05.634Z,38.60
2019-02-16T12:27:43.469Z,36.60
2019-02-16T12:30:43.742Z,37.20
2019-02-16T12:33:21.702Z,38.00
2019-02-16T12:36:10.980Z,38.10
2019-02-16T12:39:05.263Z,39.80
2019-02-16T12:41:54.317Z,37.60
2019-02-16T12:44:31.094Z,40.10
2019-02-16T12:47:31.326Z,40.30
2019-02-16T12:50:18.582Z,40.90
2019-02-16T12:53:07.429Z,38.50
2019-02-16T12:55:55.697Z,38.30
2019-02-16T12:58:41.630Z,38.40
2019-02-16T13:01:27.230Z,39.30
2019-02-16T13:04:11.659Z,40.10
2019-02-16T13:07:02.915Z,38.80
2019-02-16T13:10:00.335Z,39.60
2019-02-16T13:12:54.748Z,39.80
2019-02-16T13:15:41.859Z,39.30
2019-02-16T13:18:28.958Z,38.60
2019-02-16T13:21:23.421Z,40.50
2019-02-16T13:24:17.881Z,40.40
2019-02-16T13:27:06.074Z,40.20
2019-02-16T13:29:47.717Z,38.30
2019-02-16T13:32:30.089Z,38.30
2019-02-16T13:35:16.754Z,38.40
2019-02-16T13:37:53.105Z,39.00
2019-02-16T13:40:46.733Z,38.10
2019-02-16T13:43:43.930Z,37.70
2019-02-16T13:46:35.329Z,36.30
2019-02-16T13:49:23.520Z,33.70
2019-02-16T13:52:14.722Z,31.90
2019-02-16T13:54:52.165Z,30.40
2019-02-16T13:57:39.091Z,31.50
2019-02-16T14:00:21.281Z,30.30
2019-02-16T14:03:05.819Z,28.80
2019-02-16T14:05:59.937Z,27.90
2019-02-16T14:08:45.788Z,26.50
2019-02-16T14:11:32.971Z,26.30
2019-02-16T14:14:11.112Z,25.60
2019-02-16T14:17:02.494Z,25.00
2019-02-16T14:19:31.645Z,24.50
2019-02-16T14:22:00.822Z,24.40
2019-02-16T14:24:45.132Z,24.50
2019-02-16T14:27:14.377Z,24.80
2019-02-16T14:29:43.684Z,27.00
2019-02-16T14:32:13.100Z,27.80
2019-02-16T14:35:01.341Z,28.00
2019-02-16T14:37:48.676Z,26.10
2019-02-16T14:40:17.953Z,24.00
2019-02-16T14:42:47.131Z,23.20
2019-02-16T14:45:16.532Z,22.70
2019-02-16T14:47:45.709Z,21.90
2019-02-16T14:50:16.810Z,21.80
2019-02-16T14:52:46.103Z,21.70
2019-02-16T14:55:15.288Z,21.60
2019-02-16T14:57:44.482Z,20.90
2019-02-16T15:00:13.804Z,20.70
2019-02-16T15:02:42.996Z,20.60
2019-02-16T15:05:12.311Z,20.30
2019-02-16T15:07:41.472Z,19.80
2019-02-16T15:10:10.954Z,19.50
2019-02-16T15:12:40.235Z,19.40
2019-02-16T15:15:09.506Z,19.00
2019-02-16T15:17:38.946Z,18.90
2019-02-16T15:20:09.875Z,18.80
2019-02-16T15:22:39.050Z,18.80
2019-02-16T15:25:10.658Z,18.80
2019-02-16T15:27:40.072Z,18.40
2019-02-16T15:30:12.007Z,18.00
2019-02-16T15:32:41.230Z,17.80
2019-02-16T15:35:11.439Z,17.80
2019-02-16T15:37:40.727Z,17.90
2019-02-16T15:40:10.234Z,17.50
2019-02-16T15:42:39.492Z,17.20
2019-02-16T15:45:11.377Z,17.20
2019-02-16T15:47:40.707Z,16.90
2019-02-16T15:50:11.420Z,16.50
2019-02-16T15:52:40.581Z,16.40
2019-02-16T15:55:10.915Z,15.70
2019-02-16T15:57:40.169Z,15.50
2019-02-16T16:00:15.386Z,15.60
2019-02-16T16:02:44.728Z,15.10
2019-02-16T16:05:14.191Z,15.00
2019-02-16T16:07:45.868Z,14.70
2019-02-16T16:10:37.365Z,14.70
2019-02-16T16:13:44.334Z,14.70
2019-02-16T16:16:41.496Z,14.30
2019-02-16T16:19:18.542Z,13.70
2019-02-16T16:22:06.751Z,13.70
2019-02-16T16:24:59.155Z,13.70
2019-02-16T16:27:59.553Z,13.70
2019-02-16T16:31:02.826Z,13.40
2019-02-16T16:33:55.730Z,13.10
2019-02-16T16:36:33.343Z,12.80
2019-02-16T16:39:33.673Z,12.80
2019-02-16T16:42:37.054Z,12.50
2019-02-16T16:45:34.287Z,12.30
2019-02-16T16:48:37.648Z,11.80
2019-02-16T16:51:18.725Z,11.60
2019-02-16T16:54:07.876Z,11.60
2019-02-16T16:56:48.408Z,11.50
2019-02-16T16:59:36.485Z,11.40
2019-02-16T17:02:30.721Z,11.40
2019-02-16T17:05:27.983Z,11.50
2019-02-16T17:08:08.081Z,11.40
2019-02-16T17:11:05.326Z,11.20
2019-02-16T17:13:41.745Z,11.00
2019-02-16T17:16:16.677Z,10.70
2019-02-16T17:19:04.000Z,10.60
2019-02-16T17:21:59.219Z,10.40
2019-02-16T17:24:34.553Z,10.10
2019-02-16T17:27:22.005Z,10.10
2019-02-16T17:30:01.926Z,10.00
2019-02-16T17:32:53.154Z,9.80
2019-02-16T17:35:33.272Z,9.80
2019-02-16T17:38:40.122Z,9.60
2019-02-16T17:41:27.270Z,9.40
2019-02-16T17:44:10.356Z,9.30
2019-02-16T17:46:58.601Z,9.20
2019-02-16T17:49:44.532Z,9.20
2019-02-16T17:52:35.524Z,9.30
2019-02-16T17:55:23.723Z,9.00
2019-02-16T17:58:04.063Z,8.90
2019-02-16T18:01:04.889Z,8.80
2019-02-16T18:03:51.807Z,8.80
2019-02-16T18:06:38.971Z,8.70
2019-02-16T18:09:26.172Z,8.60
2019-02-16T18:12:13.760Z,8.40
2019-02-16T18:14:58.979Z,8.20
2019-02-16T18:17:50.142Z,8.30
2019-02-16T18:20:26.086Z,8.20
2019-02-16T18:23:20.079Z,8.10
2019-02-16T18:26:17.514Z,8.30
2019-02-16T18:29:05.753Z,8.40
2019-02-16T18:32:03.257Z,8.30
2019-02-16T18:34:50.472Z,8.20
2019-02-16T18:37:32.342Z,8.20
2019-02-16T18:40:32.460Z,7.80
2019-02-16T18:43:12.211Z,7.80
2019-02-16T18:46:12.535Z,7.90
2019-02-16T18:48:52.634Z,7.80
2019-02-16T18:51:32.528Z,7.80
2019-02-16T18:54:20.608Z,7.60
2019-02-16T18:57:18.065Z,7.70
2019-02-16T19:00:07.781Z,7.30
2019-02-16T19:02:54.804Z,7.30
2019-02-16T19:05:46.365Z,7.00
2019-02-16T19:08:22.163Z,7.00
2019-02-16T19:11:08.956Z,7.00
2019-02-16T19:13:46.440Z,6.90
2019-02-16T19:16:37.441Z,6.70
2019-02-16T19:19:24.545Z,6.70
2019-02-16T19:22:19.096Z,6.70
2019-02-16T19:24:53.684Z,6.80
2019-02-16T19:27:40.830Z,6.90
2019-02-16T19:30:18.193Z,6.80
2019-02-16T19:33:06.264Z,6.70
2019-02-16T19:36:00.697Z,6.70
2019-02-16T19:38:50.937Z,6.50
2019-02-16T19:41:45.417Z,6.40
2019-02-16T19:44:32.445Z,6.30
2019-02-16T19:47:29.093Z,6.30
2019-02-16T19:50:29.366Z,6.30
2019-02-16T19:53:23.385Z,6.50
2019-02-16T19:56:11.609Z,6.10
2019-02-16T19:58:52.220Z,5.70
2019-02-16T20:01:39.010Z,5.70
2019-02-16T20:04:26.149Z,5.80
2019-02-16T20:07:20.493Z,5.70
2019-02-16T20:09:56.592Z,5.50
2019-02-16T20:12:50.988Z,5.60
2019-02-16T20:15:57.508Z,5.70
2019-02-16T20:18:48.729Z,5.60
2019-02-16T20:21:41.040Z,5.50
2019-02-16T20:24:41.427Z,5.50
2019-02-16T20:27:42.036Z,5.40
2019-02-16T20:30:30.252Z,5.30
2019-02-16T20:33:21.477Z,5.30
2019-02-16T20:36:18.697Z,5.00
2019-02-16T20:39:04.678Z,5.20
2019-02-16T20:41:40.973Z,5.10
2019-02-16T20:44:23.141Z,5.10
2019-02-16T20:47:02.544Z,5.10
2019-02-16T20:50:05.995Z,5.00
2019-02-16T20:52:53.081Z,4.90
2019-02-16T20:55:41.327Z,4.90
2019-02-16T20:58:20.334Z,4.80
2019-02-16T21:01:08.558Z,4.80
2019-02-16T21:04:02.896Z,4.80
2019-02-16T21:06:48.288Z,4.60
2019-02-16T21:09:42.275Z,4.50
2019-02-16T21:12:39.539Z,4.60
2019-02-16T21:15:19.952Z,4.60
2019-02-16T21:18:06.793Z,4.60
2019-02-16T21:20:53.636Z,4.50
2019-02-16T21:23:37.839Z,4.40
2019-02-16T21:26:36.583Z,4.70
2019-02-16T21:29:22.269Z,4.60
2019-02-16T21:32:22.411Z,4.30
2019-02-16T21:35:10.594Z,4.30
2019-02-16T21:37:57.610Z,4.10
2019-02-16T21:40:37.937Z,4.30
2019-02-16T21:43:26.210Z,4.20
2019-02-16T21:46:08.441Z,4.00
2019-02-16T21:48:49.988Z,4.10
2019-02-16T21:51:27.978Z,3.90
2019-02-16T21:54:28.554Z,4.20
2019-02-16T21:57:15.462Z,4.10
2019-02-16T22:00:09.747Z,4.00
2019-02-16T22:02:58.495Z,4.00
2019-02-16T22:05:52.962Z,4.00
2019-02-16T22:08:40.653Z,4.00
2019-02-16T22:11:16.587Z,4.00
2019-02-16T22:13:45.987Z,4.00
2019-02-16T22:16:15.160Z,3.90
2019-02-16T22:18:44.549Z,3.90
2019-02-16T22:21:13.717Z,4.00
2019-02-16T22:23:42.914Z,4.00
2019-02-16T22:26:12.079Z,3.90
2019-02-16T22:28:41.227Z,3.90
2019-02-16T22:31:10.393Z,3.70
2019-02-16T22:33:39.721Z,3.60
2019-02-16T22:36:09.016Z,3.40
2019-02-16T22:38:38.277Z,3.50
2019-02-16T22:41:07.627Z,3.30
2019-02-16T22:43:36.829Z,3.40
2019-02-16T22:46:06.001Z,3.40
2019-02-16T22:48:35.131Z,3.50
2019-02-16T22:51:04.311Z,3.50
2019-02-16T22:53:33.452Z,3.60
2019-02-16T22:56:02.636Z,3.30
2019-02-16T22:58:31.785Z,3.10
2019-02-16T23:01:01.167Z,3.20
2019-02-16T23:03:30.412Z,3.10
2019-02-16T23:05:59.677Z,3.20
2019-02-16T23:08:28.861Z,3.10
2019-02-16T23:10:58.124Z,3.10
2019-02-16T23:13:27.276Z,3.20
2019-02-16T23:15:56.643Z,3.10
2019-02-16T23:18:25.969Z,3.30
2019-02-16T23:20:55.107Z,3.40
2019-02-16T23:23:24.276Z,3.30
2019-02-16T23:25:53.437Z,3.30
2019-02-16T23:28:22.669Z,3.30
2019-02-16T23:30:51.901Z,3.20
2019-02-16T23:33:21.063Z,3.20
2019-02-16T23:35:50.325Z,3.00
2019-02-16T23:38:19.578Z,2.80
2019-02-16T23:40:48.760Z,2.90
2019-02-16T23:43:17.940Z,3.10
2019-02-16T23:45:47.177Z,3.10
2019-02-16T23:48:16.328Z,3.10
2019-02-16T23:50:45.561Z,3.10
2019-02-16T23:53:14.716Z,3.20
2019-02-16T23:55:44.075Z,3.00
2019-02-16T23:58:13.236Z,3.10
